sensor_id;sensor_type;location;lat;lon;timestamp;temperature;humidity
3986;DHT22;2007;48.750;9.278;2023-04-03T00:00:47;16.20;52.80
3986;DHT22;2007;48.750;9.278;2023-04-03T00:03:16;16.20;52.80
3986;DHT22;2007;48.750;9.278;2023-04-03T00:05:44;16.20;52.80
3986;DHT22;2007;48.750;9.278;2023-04-03T00:08:14;16.30;52.90
3986;DHT22;2007;48.750;9.278;2023-04-03T00:10:42;16.20;52.70
3986;DHT22;2007;48.750;9.278;2023-04-03T00:13:10;16.20;52.70
3986;DHT22;2007;48.750;9.278;2023-04-03T00:15:38;16.20;53.40
3986;DHT22;2007;48.750;9.278;2023-04-03T00:18:07;16.30;52.80
3986;DHT22;2007;48.750;9.278;2023-04-03T00:20:35;16.30;52.80
3986;DHT22;2007;48.750;9.278;2023-04-03T00:23:03;16.30;52.80
3986;DHT22;2007;48.750;9.278;2023-04-03T00:25:33;16.30;52.80
3986;DHT22;2007;48.750;9.278;2023-04-03T00:28:02;16.30;52.80
3986;DHT22;2007;48.750;9.278;2023-04-03T00:30:30;16.20;52.70
3986;DHT22;2007;48.750;9.278;2023-04-03T00:32:59;16.20;52.70
3986;DHT22;2007;48.750;9.278;2023-04-03T00:35:28;16.20;52.70
3986;DHT22;2007;48.750;9.278;2023-04-03T00:37:56;16.20;52.70
3986;DHT22;2007;48.750;9.278;2023-04-03T00:40:25;16.20;52.70
3986;DHT22;2007;48.750;9.278;2023-04-03T00:42:58;16.20;52.70
3986;DHT22;2007;48.750;9.278;2023-04-03T00:45:44;16.20;52.70
3986;DHT22;2007;48.750;9.278;2023-04-03T00:48:15;16.20;52.70
3986;DHT22;2007;48.750;9.278;2023-04-03T00:50:45;16.20;52.70
3986;DHT22;2007;48.750;9.278;2023-04-03T00:53:16;16.20;52.70
3986;DHT22;2007;48.750;9.278;2023-04-03T00:55:46;16.20;52.70
3986;DHT22;2007;48.750;9.278;2023-04-03T00:58:18;16.20;52.70
3986;DHT22;2007;48.750;9.278;2023-04-03T01:00:50;16.20;52.60
3986;DHT22;2007;48.750;9.278;2023-04-03T01:03:23;16.20;52.70
3986;DHT22;2007;48.750;9.278;2023-04-03T01:05:51;16.20;52.70
3986;DHT22;2007;48.750;9.278;2023-04-03T01:08:19;16.20;52.70
3986;DHT22;2007;48.750;9.278;2023-04-03T01:10:47;16.20;52.60
3986;DHT22;2007;48.750;9.278;2023-04-03T01:13:23;16.20;52.60
3986;DHT22;2007;48.750;9.278;2023-04-03T01:15:51;16.20;52.60
3986;DHT22;2007;48.750;9.278;2023-04-03T01:18:20;16.20;52.60
3986;DHT22;2007;48.750;9.278;2023-04-03T01:24:02;16.20;52.60
3986;DHT22;2007;48.750;9.278;2023-04-03T01:26:32;16.20;52.60
3986;DHT22;2007;48.750;9.278;2023-04-03T01:29:02;16.20;52.60
3986;DHT22;2007;48.750;9.278;2023-04-03T01:31:40;16.20;52.60
3986;DHT22;2007;48.750;9.278;2023-04-03T01:34:08;16.10;52.50
3986;DHT22;2007;48.750;9.278;2023-04-03T01:36:36;16.10;52.50
3986;DHT22;2007;48.750;9.278;2023-04-03T01:39:03;16.10;52.50
3986;DHT22;2007;48.750;9.278;2023-04-03T01:41:31;16.20;52.60
3986;DHT22;2007;48.750;9.278;2023-04-03T01:43:59;16.20;52.60
3986;DHT22;2007;48.750;9.278;2023-04-03T01:46:27;16.10;52.50
3986;DHT22;2007;48.750;9.278;2023-04-03T01:48:57;16.10;52.50
3986;DHT22;2007;48.750;9.278;2023-04-03T01:51:25;16.20;52.60
3986;DHT22;2007;48.750;9.278;2023-04-03T01:53:53;16.10;52.50
3986;DHT22;2007;48.750;9.278;2023-04-03T01:56:21;16.10;52.50
3986;DHT22;2007;48.750;9.278;2023-04-03T01:58:49;16.20;52.60
3986;DHT22;2007;48.750;9.278;2023-04-03T02:01:17;16.10;52.50
3986;DHT22;2007;48.750;9.278;2023-04-03T02:03:45;16.10;52.50
3986;DHT22;2007;48.750;9.278;2023-04-03T02:06:14;16.10;52.50
3986;DHT22;2007;48.750;9.278;2023-04-03T02:08:42;16.10;52.50
3986;DHT22;2007;48.750;9.278;2023-04-03T02:11:10;16.20;52.60
3986;DHT22;2007;48.750;9.278;2023-04-03T02:13:38;16.20;52.60
3986;DHT22;2007;48.750;9.278;2023-04-03T02:16:07;16.10;52.50
3986;DHT22;2007;48.750;9.278;2023-04-03T02:18:35;16.10;52.50
3986;DHT22;2007;48.750;9.278;2023-04-03T02:21:03;16.10;52.50
3986;DHT22;2007;48.750;9.278;2023-04-03T02:23:33;16.10;52.50
3986;DHT22;2007;48.750;9.278;2023-04-03T02:26:07;16.10;52.50
3986;DHT22;2007;48.750;9.278;2023-04-03T02:28:36;16.10;52.40
3986;DHT22;2007;48.750;9.278;2023-04-03T02:31:04;16.10;52.40
3986;DHT22;2007;48.750;9.278;2023-04-03T02:33:33;16.10;52.50
3986;DHT22;2007;48.750;9.278;2023-04-03T02:36:01;16.10;52.40
3986;DHT22;2007;48.750;9.278;2023-04-03T02:38:29;16.10;52.40
3986;DHT22;2007;48.750;9.278;2023-04-03T02:41:01;16.10;52.50
3986;DHT22;2007;48.750;9.278;2023-04-03T02:43:29;16.10;52.40
3986;DHT22;2007;48.750;9.278;2023-04-03T02:45:57;16.10;52.40
3986;DHT22;2007;48.750;9.278;2023-04-03T02:48:25;16.10;52.40
3986;DHT22;2007;48.750;9.278;2023-04-03T02:50:53;16.10;52.40
3986;DHT22;2007;48.750;9.278;2023-04-03T02:53:21;16.10;52.40
3986;DHT22;2007;48.750;9.278;2023-04-03T02:55:49;16.10;52.40
3986;DHT22;2007;48.750;9.278;2023-04-03T02:58:19;16.10;52.40
3986;DHT22;2007;48.750;9.278;2023-04-03T03:00:47;16.10;52.40
3986;DHT22;2007;48.750;9.278;2023-04-03T03:03:14;16.10;52.40
3986;DHT22;2007;48.750;9.278;2023-04-03T03:05:42;16.10;52.40
3986;DHT22;2007;48.750;9.278;2023-04-03T03:08:10;16.10;52.40
3986;DHT22;2007;48.750;9.278;2023-04-03T03:10:38;16.10;52.40
3986;DHT22;2007;48.750;9.278;2023-04-03T03:13:06;16.10;52.40
3986;DHT22;2007;48.750;9.278;2023-04-03T03:15:35;16.10;52.40
3986;DHT22;2007;48.750;9.278;2023-04-03T03:18:04;16.10;52.40
3986;DHT22;2007;48.750;9.278;2023-04-03T03:20:32;16.10;52.40
3986;DHT22;2007;48.750;9.278;2023-04-03T03:23:00;16.10;52.40
3986;DHT22;2007;48.750;9.278;2023-04-03T03:25:28;16.10;52.40
3986;DHT22;2007;48.750;9.278;2023-04-03T03:27:56;16.00;52.30
3986;DHT22;2007;48.750;9.278;2023-04-03T03:30:24;16.00;52.30
3986;DHT22;2007;48.750;9.278;2023-04-03T03:32:54;16.00;52.30
3986;DHT22;2007;48.750;9.278;2023-04-03T03:35:22;16.00;52.30
3986;DHT22;2007;48.750;9.278;2023-04-03T03:37:50;16.10;53.00
3986;DHT22;2007;48.750;9.278;2023-04-03T03:40:18;16.00;52.30
3986;DHT22;2007;48.750;9.278;2023-04-03T03:42:46;16.00;52.30
3986;DHT22;2007;48.750;9.278;2023-04-03T03:45:14;16.00;52.30
3986;DHT22;2007;48.750;9.278;2023-04-03T03:47:42;16.00;52.30
3986;DHT22;2007;48.750;9.278;2023-04-03T03:50:11;16.00;52.30
3986;DHT22;2007;48.750;9.278;2023-04-03T03:52:39;16.00;52.30
3986;DHT22;2007;48.750;9.278;2023-04-03T03:55:07;16.00;52.20
3986;DHT22;2007;48.750;9.278;2023-04-03T03:57:35;16.00;52.30
3986;DHT22;2007;48.750;9.278;2023-04-03T04:00:04;16.00;52.20
3986;DHT22;2007;48.750;9.278;2023-04-03T04:02:33;16.00;52.20
3986;DHT22;2007;48.750;9.278;2023-04-03T04:05:02;16.00;52.20
3986;DHT22;2007;48.750;9.278;2023-04-03T04:07:31;16.00;52.30
3986;DHT22;2007;48.750;9.278;2023-04-03T04:09:59;16.00;52.20
3986;DHT22;2007;48.750;9.278;2023-04-03T04:12:27;16.00;52.30
3986;DHT22;2007;48.750;9.278;2023-04-03T04:14:55;16.00;52.20
3986;DHT22;2007;48.750;9.278;2023-04-03T04:17:23;16.00;52.20
3986;DHT22;2007;48.750;9.278;2023-04-03T04:19:51;16.00;52.20
3986;DHT22;2007;48.750;9.278;2023-04-03T04:22:19;16.00;52.30
3986;DHT22;2007;48.750;9.278;2023-04-03T04:24:48;16.00;52.30
3986;DHT22;2007;48.750;9.278;2023-04-03T04:27:16;16.00;52.20
3986;DHT22;2007;48.750;9.278;2023-04-03T04:29:43;16.00;52.20
3986;DHT22;2007;48.750;9.278;2023-04-03T04:32:11;16.00;52.20
3986;DHT22;2007;48.750;9.278;2023-04-03T04:34:39;16.00;52.20
3986;DHT22;2007;48.750;9.278;2023-04-03T04:37:07;16.00;52.20
3986;DHT22;2007;48.750;9.278;2023-04-03T04:39:35;16.00;52.20
3986;DHT22;2007;48.750;9.278;2023-04-03T04:42:04;16.00;52.20
3986;DHT22;2007;48.750;9.278;2023-04-03T04:44:33;16.00;52.20
3986;DHT22;2007;48.750;9.278;2023-04-03T04:47:01;16.00;52.80
3986;DHT22;2007;48.750;9.278;2023-04-03T04:49:29;16.00;52.30
3986;DHT22;2007;48.750;9.278;2023-04-03T04:51:57;16.00;52.20
3986;DHT22;2007;48.750;9.278;2023-04-03T04:54:25;16.00;52.20
3986;DHT22;2007;48.750;9.278;2023-04-03T04:56:52;16.00;52.20
3986;DHT22;2007;48.750;9.278;2023-04-03T04:59:22;15.90;52.10
3986;DHT22;2007;48.750;9.278;2023-04-03T05:01:49;15.90;52.10
3986;DHT22;2007;48.750;9.278;2023-04-03T05:04:17;16.00;52.20
3986;DHT22;2007;48.750;9.278;2023-04-03T05:06:45;15.90;52.10
3986;DHT22;2007;48.750;9.278;2023-04-03T05:09:14;15.90;52.10
3986;DHT22;2007;48.750;9.278;2023-04-03T05:11:42;15.90;52.10
3986;DHT22;2007;48.750;9.278;2023-04-03T05:14:10;15.90;52.10
3986;DHT22;2007;48.750;9.278;2023-04-03T05:16:39;16.00;52.20
3986;DHT22;2007;48.750;9.278;2023-04-03T05:19:07;15.90;52.10
3986;DHT22;2007;48.750;9.278;2023-04-03T05:21:34;15.90;52.10
3986;DHT22;2007;48.750;9.278;2023-04-03T05:24:03;15.90;52.10
3986;DHT22;2007;48.750;9.278;2023-04-03T05:26:31;15.90;52.10
3986;DHT22;2007;48.750;9.278;2023-04-03T05:28:59;15.90;52.10
3986;DHT22;2007;48.750;9.278;2023-04-03T05:31:27;15.90;52.10
3986;DHT22;2007;48.750;9.278;2023-04-03T05:33:58;15.90;52.10
3986;DHT22;2007;48.750;9.278;2023-04-03T05:36:26;15.90;52.10
3986;DHT22;2007;48.750;9.278;2023-04-03T05:38:54;15.90;52.10
3986;DHT22;2007;48.750;9.278;2023-04-03T05:41:23;15.90;52.10
3986;DHT22;2007;48.750;9.278;2023-04-03T05:43:51;15.90;52.10
3986;DHT22;2007;48.750;9.278;2023-04-03T05:46:19;15.90;52.10
3986;DHT22;2007;48.750;9.278;2023-04-03T05:48:49;15.90;52.10
3986;DHT22;2007;48.750;9.278;2023-04-03T05:51:20;15.90;52.10
3986;DHT22;2007;48.750;9.278;2023-04-03T05:53:52;15.90;52.10
3986;DHT22;2007;48.750;9.278;2023-04-03T05:56:22;15.90;52.10
3986;DHT22;2007;48.750;9.278;2023-04-03T05:58:50;15.90;52.10
3986;DHT22;2007;48.750;9.278;2023-04-03T06:01:18;15.90;52.10
3986;DHT22;2007;48.750;9.278;2023-04-03T06:03:46;15.90;52.10
3986;DHT22;2007;48.750;9.278;2023-04-03T06:06:14;15.90;52.10
3986;DHT22;2007;48.750;9.278;2023-04-03T06:08:43;15.90;52.10
3986;DHT22;2007;48.750;9.278;2023-04-03T06:11:12;15.90;52.10
3986;DHT22;2007;48.750;9.278;2023-04-03T06:13:40;15.90;52.10
3986;DHT22;2007;48.750;9.278;2023-04-03T06:16:09;15.90;52.10
3986;DHT22;2007;48.750;9.278;2023-04-03T06:18:37;15.90;52.10
3986;DHT22;2007;48.750;9.278;2023-04-03T06:21:05;15.90;52.10
3986;DHT22;2007;48.750;9.278;2023-04-03T06:23:34;15.90;52.10
3986;DHT22;2007;48.750;9.278;2023-04-03T06:26:03;15.90;52.10
3986;DHT22;2007;48.750;9.278;2023-04-03T06:28:32;15.90;52.10
3986;DHT22;2007;48.750;9.278;2023-04-03T06:31:00;15.80;52.00
3986;DHT22;2007;48.750;9.278;2023-04-03T06:33:28;15.80;52.00
3986;DHT22;2007;48.750;9.278;2023-04-03T06:35:57;15.90;52.10
3986;DHT22;2007;48.750;9.278;2023-04-03T06:38:26;15.90;52.10
3986;DHT22;2007;48.750;9.278;2023-04-03T06:40:54;15.90;52.10
3986;DHT22;2007;48.750;9.278;2023-04-03T06:43:24;15.90;52.10
3986;DHT22;2007;48.750;9.278;2023-04-03T06:45:52;15.80;52.00
3986;DHT22;2007;48.750;9.278;2023-04-03T06:48:20;15.80;52.00
3986;DHT22;2007;48.750;9.278;2023-04-03T06:50:48;15.80;52.00
3986;DHT22;2007;48.750;9.278;2023-04-03T06:53:16;15.80;52.00
3986;DHT22;2007;48.750;9.278;2023-04-03T06:55:44;15.80;52.00
3986;DHT22;2007;48.750;9.278;2023-04-03T06:58:13;15.90;52.10
3986;DHT22;2007;48.750;9.278;2023-04-03T07:00:43;15.80;52.00
3986;DHT22;2007;48.750;9.278;2023-04-03T07:03:11;15.80;52.00
3986;DHT22;2007;48.750;9.278;2023-04-03T07:05:39;15.80;52.00
3986;DHT22;2007;48.750;9.278;2023-04-03T07:08:07;15.80;52.00
3986;DHT22;2007;48.750;9.278;2023-04-03T07:10:35;15.80;52.00
3986;DHT22;2007;48.750;9.278;2023-04-03T07:13:02;15.80;52.00
3986;DHT22;2007;48.750;9.278;2023-04-03T07:15:31;15.80;52.00
3986;DHT22;2007;48.750;9.278;2023-04-03T07:18:00;15.80;52.00
3986;DHT22;2007;48.750;9.278;2023-04-03T07:20:28;15.80;52.00
3986;DHT22;2007;48.750;9.278;2023-04-03T07:22:56;15.80;52.00
3986;DHT22;2007;48.750;9.278;2023-04-03T07:25:24;15.80;52.00
3986;DHT22;2007;48.750;9.278;2023-04-03T07:27:53;15.80;52.00
3986;DHT22;2007;48.750;9.278;2023-04-03T07:30:21;15.80;52.00
3986;DHT22;2007;48.750;9.278;2023-04-03T07:32:49;15.80;52.00
3986;DHT22;2007;48.750;9.278;2023-04-03T07:35:19;15.80;52.00
3986;DHT22;2007;48.750;9.278;2023-04-03T07:37:47;15.80;52.00
3986;DHT22;2007;48.750;9.278;2023-04-03T07:40:15;15.80;52.00
3986;DHT22;2007;48.750;9.278;2023-04-03T07:42:45;15.80;52.00
3986;DHT22;2007;48.750;9.278;2023-04-03T07:45:13;15.80;52.00
3986;DHT22;2007;48.750;9.278;2023-04-03T07:47:41;15.80;52.00
3986;DHT22;2007;48.750;9.278;2023-04-03T07:50:09;15.80;52.00
3986;DHT22;2007;48.750;9.278;2023-04-03T07:52:39;15.80;52.00
3986;DHT22;2007;48.750;9.278;2023-04-03T07:55:08;15.80;52.00
3986;DHT22;2007;48.750;9.278;2023-04-03T07:57:36;15.80;52.00
3986;DHT22;2007;48.750;9.278;2023-04-03T08:00:05;15.80;52.00
3986;DHT22;2007;48.750;9.278;2023-04-03T08:02:33;15.80;52.00
3986;DHT22;2007;48.750;9.278;2023-04-03T08:05:01;15.80;52.00
3986;DHT22;2007;48.750;9.278;2023-04-03T08:07:29;15.80;52.00
3986;DHT22;2007;48.750;9.278;2023-04-03T08:09:59;15.80;52.00
3986;DHT22;2007;48.750;9.278;2023-04-03T08:12:26;15.80;52.00
3986;DHT22;2007;48.750;9.278;2023-04-03T08:14:55;15.70;51.90
3986;DHT22;2007;48.750;9.278;2023-04-03T08:17:23;15.80;52.00
3986;DHT22;2007;48.750;9.278;2023-04-03T08:19:51;15.80;52.00
3986;DHT22;2007;48.750;9.278;2023-04-03T08:22:19;15.80;52.00
3986;DHT22;2007;48.750;9.278;2023-04-03T08:24:47;15.70;51.90
3986;DHT22;2007;48.750;9.278;2023-04-03T08:27:26;15.70;51.90
3986;DHT22;2007;48.750;9.278;2023-04-03T08:29:55;15.70;51.90
3986;DHT22;2007;48.750;9.278;2023-04-03T08:32:23;15.80;52.00
3986;DHT22;2007;48.750;9.278;2023-04-03T08:34:52;15.80;52.00
3986;DHT22;2007;48.750;9.278;2023-04-03T08:37:20;15.80;52.00
3986;DHT22;2007;48.750;9.278;2023-04-03T08:39:48;15.70;51.90
3986;DHT22;2007;48.750;9.278;2023-04-03T08:42:24;15.80;52.00
3986;DHT22;2007;48.750;9.278;2023-04-03T08:45:00;15.70;51.90
3986;DHT22;2007;48.750;9.278;2023-04-03T08:47:36;15.80;52.00
3986;DHT22;2007;48.750;9.278;2023-04-03T08:50:07;15.70;51.90
3986;DHT22;2007;48.750;9.278;2023-04-03T08:52:39;15.70;51.90
3986;DHT22;2007;48.750;9.278;2023-04-03T08:55:21;15.70;51.90
3986;DHT22;2007;48.750;9.278;2023-04-03T08:57:53;15.70;51.90
3986;DHT22;2007;48.750;9.278;2023-04-03T09:00:30;15.70;51.90
3986;DHT22;2007;48.750;9.278;2023-04-03T09:02:58;15.70;52.20
3986;DHT22;2007;48.750;9.278;2023-04-03T09:05:40;15.70;52.00
3986;DHT22;2007;48.750;9.278;2023-04-03T09:08:18;15.70;51.90
3986;DHT22;2007;48.750;9.278;2023-04-03T09:10:49;15.70;51.90
3986;DHT22;2007;48.750;9.278;2023-04-03T09:13:26;15.70;51.90
3986;DHT22;2007;48.750;9.278;2023-04-03T09:16:00;15.70;51.90
3986;DHT22;2007;48.750;9.278;2023-04-03T09:18:32;15.70;51.90
3986;DHT22;2007;48.750;9.278;2023-04-03T09:21:04;15.70;51.90
3986;DHT22;2007;48.750;9.278;2023-04-03T09:23:40;15.70;51.90
3986;DHT22;2007;48.750;9.278;2023-04-03T09:26:14;15.70;51.90
3986;DHT22;2007;48.750;9.278;2023-04-03T09:28:43;15.70;51.90
3986;DHT22;2007;48.750;9.278;2023-04-03T09:31:20;15.70;51.90
3986;DHT22;2007;48.750;9.278;2023-04-03T09:33:52;15.70;51.90
3986;DHT22;2007;48.750;9.278;2023-04-03T09:36:40;15.70;51.90
3986;DHT22;2007;48.750;9.278;2023-04-03T09:39:12;15.70;51.90
3986;DHT22;2007;48.750;9.278;2023-04-03T09:41:41;15.70;51.90
3986;DHT22;2007;48.750;9.278;2023-04-03T09:44:22;15.70;51.90
3986;DHT22;2007;48.750;9.278;2023-04-03T09:46:52;15.70;51.90
3986;DHT22;2007;48.750;9.278;2023-04-03T09:49:20;15.70;51.90
3986;DHT22;2007;48.750;9.278;2023-04-03T09:51:48;15.70;51.90
3986;DHT22;2007;48.750;9.278;2023-04-03T09:54:31;15.70;51.90
3986;DHT22;2007;48.750;9.278;2023-04-03T09:57:04;15.70;51.80
3986;DHT22;2007;48.750;9.278;2023-04-03T09:59:33;15.70;51.90
3986;DHT22;2007;48.750;9.278;2023-04-03T10:02:21;15.70;51.90
3986;DHT22;2007;48.750;9.278;2023-04-03T10:04:50;15.70;51.90
3986;DHT22;2007;48.750;9.278;2023-04-03T10:07:35;15.70;51.80
3986;DHT22;2007;48.750;9.278;2023-04-03T10:10:18;15.70;51.90
3986;DHT22;2007;48.750;9.278;2023-04-03T10:12:46;15.70;51.80
3986;DHT22;2007;48.750;9.278;2023-04-03T10:15:16;15.70;51.90
3986;DHT22;2007;48.750;9.278;2023-04-03T10:17:53;15.70;51.90
3986;DHT22;2007;48.750;9.278;2023-04-03T10:20:32;15.70;51.80
3986;DHT22;2007;48.750;9.278;2023-04-03T10:23:15;15.70;51.90
3986;DHT22;2007;48.750;9.278;2023-04-03T10:25:51;15.60;51.80
3986;DHT22;2007;48.750;9.278;2023-04-03T10:28:27;15.70;51.80
3986;DHT22;2007;48.750;9.278;2023-04-03T10:31:03;15.60;51.70
3986;DHT22;2007;48.750;9.278;2023-04-03T10:33:45;15.70;51.80
3986;DHT22;2007;48.750;9.278;2023-04-03T10:36:22;15.60;51.80
3986;DHT22;2007;48.750;9.278;2023-04-03T10:38:59;15.60;51.70
3986;DHT22;2007;48.750;9.278;2023-04-03T10:41:38;15.60;51.70
3986;DHT22;2007;48.750;9.278;2023-04-03T10:44:14;15.70;51.90
3986;DHT22;2007;48.750;9.278;2023-04-03T10:46:46;15.60;51.80
3986;DHT22;2007;48.750;9.278;2023-04-03T10:49:25;15.70;51.80
3986;DHT22;2007;48.750;9.278;2023-04-03T10:52:04;15.60;51.80
3986;DHT22;2007;48.750;9.278;2023-04-03T10:54:36;15.60;51.80
3986;DHT22;2007;48.750;9.278;2023-04-03T10:57:08;15.60;51.70
3986;DHT22;2007;48.750;9.278;2023-04-03T10:59:42;15.60;51.80
3986;DHT22;2007;48.750;9.278;2023-04-03T11:02:16;15.60;51.70
3986;DHT22;2007;48.750;9.278;2023-04-03T11:04:49;15.60;51.70
3986;DHT22;2007;48.750;9.278;2023-04-03T11:07:21;15.60;51.80
3986;DHT22;2007;48.750;9.278;2023-04-03T11:09:52;15.60;51.70
3986;DHT22;2007;48.750;9.278;2023-04-03T11:12:25;15.60;51.70
3986;DHT22;2007;48.750;9.278;2023-04-03T11:14:56;15.60;51.80
3986;DHT22;2007;48.750;9.278;2023-04-03T11:17:30;15.60;52.40
3986;DHT22;2007;48.750;9.278;2023-04-03T11:20:06;15.60;51.80
3986;DHT22;2007;48.750;9.278;2023-04-03T11:22:38;15.60;51.70
3986;DHT22;2007;48.750;9.278;2023-04-03T11:25:15;15.60;51.70
3986;DHT22;2007;48.750;9.278;2023-04-03T11:27:49;15.60;51.70
3986;DHT22;2007;48.750;9.278;2023-04-03T11:30:21;15.60;51.70
3986;DHT22;2007;48.750;9.278;2023-04-03T11:33:03;15.60;51.70
3986;DHT22;2007;48.750;9.278;2023-04-03T11:35:34;15.60;51.70
3986;DHT22;2007;48.750;9.278;2023-04-03T11:38:04;15.60;51.70
3986;DHT22;2007;48.750;9.278;2023-04-03T11:40:35;15.60;51.80
3986;DHT22;2007;48.750;9.278;2023-04-03T11:43:07;15.60;51.80
3986;DHT22;2007;48.750;9.278;2023-04-03T11:45:53;15.60;51.70
3986;DHT22;2007;48.750;9.278;2023-04-03T11:48:50;15.60;51.70
3986;DHT22;2007;48.750;9.278;2023-04-03T11:51:41;15.60;51.70
3986;DHT22;2007;48.750;9.278;2023-04-03T11:54:42;15.60;51.70
3986;DHT22;2007;48.750;9.278;2023-04-03T11:57:46;15.60;51.70
3986;DHT22;2007;48.750;9.278;2023-04-03T12:00:49;15.60;51.90
3986;DHT22;2007;48.750;9.278;2023-04-03T12:04:02;15.60;51.70
3986;DHT22;2007;48.750;9.278;2023-04-03T12:06:53;15.60;51.70
3986;DHT22;2007;48.750;9.278;2023-04-03T12:12:34;15.60;51.70
3986;DHT22;2007;48.750;9.278;2023-04-03T12:15:21;15.60;51.70
3986;DHT22;2007;48.750;9.278;2023-04-03T12:17:50;15.60;51.70
3986;DHT22;2007;48.750;9.278;2023-04-03T12:20:53;15.60;51.70
3986;DHT22;2007;48.750;9.278;2023-04-03T12:23:31;15.60;51.70
3986;DHT22;2007;48.750;9.278;2023-04-03T12:26:04;15.60;51.70
3986;DHT22;2007;48.750;9.278;2023-04-03T12:28:39;15.60;51.70
3986;DHT22;2007;48.750;9.278;2023-04-03T12:31:10;15.60;51.70
3986;DHT22;2007;48.750;9.278;2023-04-03T12:34:09;15.50;51.60
3986;DHT22;2007;48.750;9.278;2023-04-03T12:36:46;15.50;51.60
3986;DHT22;2007;48.750;9.278;2023-04-03T12:42:29;15.60;51.70
3986;DHT22;2007;48.750;9.278;2023-04-03T12:45:03;15.50;51.60
3986;DHT22;2007;48.750;9.278;2023-04-03T12:47:37;15.50;51.60
3986;DHT22;2007;48.750;9.278;2023-04-03T12:50:19;15.50;51.60
3986;DHT22;2007;48.750;9.278;2023-04-03T12:52:54;15.50;51.60
3986;DHT22;2007;48.750;9.278;2023-04-03T12:55:25;15.50;51.60
3986;DHT22;2007;48.750;9.278;2023-04-03T12:57:53;15.50;51.60
3986;DHT22;2007;48.750;9.278;2023-04-03T13:00:30;15.50;51.60
3986;DHT22;2007;48.750;9.278;2023-04-03T13:03:00;15.50;51.60
3986;DHT22;2007;48.750;9.278;2023-04-03T13:05:30;15.50;51.60
3986;DHT22;2007;48.750;9.278;2023-04-03T13:08:05;15.60;51.70
3986;DHT22;2007;48.750;9.278;2023-04-03T13:10:46;15.50;51.60
3986;DHT22;2007;48.750;9.278;2023-04-03T13:13:15;15.50;51.60
3986;DHT22;2007;48.750;9.278;2023-04-03T13:15:45;15.50;51.60
3986;DHT22;2007;48.750;9.278;2023-04-03T13:18:23;15.50;51.60
3986;DHT22;2007;48.750;9.278;2023-04-03T13:20:53;15.50;51.60
3986;DHT22;2007;48.750;9.278;2023-04-03T13:23:21;15.50;51.60
3986;DHT22;2007;48.750;9.278;2023-04-03T13:25:51;15.50;51.60
3986;DHT22;2007;48.750;9.278;2023-04-03T13:28:22;15.50;51.60
3986;DHT22;2007;48.750;9.278;2023-04-03T13:31:08;15.50;51.60
3986;DHT22;2007;48.750;9.278;2023-04-03T13:33:53;15.50;51.60
3986;DHT22;2007;48.750;9.278;2023-04-03T13:36:24;15.50;51.60
3986;DHT22;2007;48.750;9.278;2023-04-03T13:39:03;15.50;51.60
3986;DHT22;2007;48.750;9.278;2023-04-03T13:41:34;15.50;51.60
3986;DHT22;2007;48.750;9.278;2023-04-03T13:44:17;15.50;51.60
3986;DHT22;2007;48.750;9.278;2023-04-03T13:46:46;15.50;51.60
3986;DHT22;2007;48.750;9.278;2023-04-03T13:49:19;15.50;51.60
3986;DHT22;2007;48.750;9.278;2023-04-03T13:51:47;15.50;51.60
3986;DHT22;2007;48.750;9.278;2023-04-03T13:54:30;15.50;51.60
3986;DHT22;2007;48.750;9.278;2023-04-03T13:57:01;15.50;51.60
3986;DHT22;2007;48.750;9.278;2023-04-03T13:59:32;15.50;51.60
3986;DHT22;2007;48.750;9.278;2023-04-03T14:02:15;15.50;51.60
3986;DHT22;2007;48.750;9.278;2023-04-03T14:04:53;15.50;51.60
3986;DHT22;2007;48.750;9.278;2023-04-03T14:07:24;15.50;51.60
3986;DHT22;2007;48.750;9.278;2023-04-03T14:09:52;15.50;51.60
3986;DHT22;2007;48.750;9.278;2023-04-03T14:12:26;15.50;51.60
3986;DHT22;2007;48.750;9.278;2023-04-03T14:14:58;15.50;51.60
3986;DHT22;2007;48.750;9.278;2023-04-03T14:17:27;15.50;51.60
3986;DHT22;2007;48.750;9.278;2023-04-03T14:19:56;15.50;51.60
3986;DHT22;2007;48.750;9.278;2023-04-03T14:22:26;15.50;51.60
3986;DHT22;2007;48.750;9.278;2023-04-03T14:24:56;15.50;51.60
3986;DHT22;2007;48.750;9.278;2023-04-03T14:27:28;15.50;51.60
3986;DHT22;2007;48.750;9.278;2023-04-03T14:29:57;15.50;51.60
3986;DHT22;2007;48.750;9.278;2023-04-03T14:32:26;15.50;51.60
3986;DHT22;2007;48.750;9.278;2023-04-03T14:34:56;15.50;51.60
3986;DHT22;2007;48.750;9.278;2023-04-03T14:37:27;15.50;51.60
3986;DHT22;2007;48.750;9.278;2023-04-03T14:39:57;15.50;51.60
3986;DHT22;2007;48.750;9.278;2023-04-03T14:42:29;15.50;52.10
3986;DHT22;2007;48.750;9.278;2023-04-03T14:44:58;15.50;51.60
3986;DHT22;2007;48.750;9.278;2023-04-03T14:47:28;15.50;51.60
3986;DHT22;2007;48.750;9.278;2023-04-03T14:49:59;15.50;51.60
3986;DHT22;2007;48.750;9.278;2023-04-03T14:52:29;15.50;51.60
3986;DHT22;2007;48.750;9.278;2023-04-03T14:54:59;15.50;51.60
3986;DHT22;2007;48.750;9.278;2023-04-03T14:57:29;15.50;51.60
3986;DHT22;2007;48.750;9.278;2023-04-03T15:00:00;15.50;51.60
3986;DHT22;2007;48.750;9.278;2023-04-03T15:02:31;15.50;51.60
3986;DHT22;2007;48.750;9.278;2023-04-03T15:05:01;15.50;51.60
3986;DHT22;2007;48.750;9.278;2023-04-03T15:07:33;15.50;51.60
3986;DHT22;2007;48.750;9.278;2023-04-03T15:10:06;15.50;51.60
3986;DHT22;2007;48.750;9.278;2023-04-03T15:12:43;15.50;51.60
3986;DHT22;2007;48.750;9.278;2023-04-03T15:15:12;15.50;51.60
3986;DHT22;2007;48.750;9.278;2023-04-03T15:17:40;15.50;51.60
3986;DHT22;2007;48.750;9.278;2023-04-03T15:20:13;15.50;51.60
3986;DHT22;2007;48.750;9.278;2023-04-03T15:22:41;15.50;51.60
3986;DHT22;2007;48.750;9.278;2023-04-03T15:25:09;15.50;51.60
3986;DHT22;2007;48.750;9.278;2023-04-03T15:27:38;15.50;51.60
3986;DHT22;2007;48.750;9.278;2023-04-03T15:30:13;15.50;52.20
3986;DHT22;2007;48.750;9.278;2023-04-03T15:32:41;15.50;51.60
3986;DHT22;2007;48.750;9.278;2023-04-03T15:35:09;15.50;51.60
3986;DHT22;2007;48.750;9.278;2023-04-03T15:37:37;15.50;51.60
3986;DHT22;2007;48.750;9.278;2023-04-03T15:40:06;15.50;51.60
3986;DHT22;2007;48.750;9.278;2023-04-03T15:42:35;15.50;51.60
3986;DHT22;2007;48.750;9.278;2023-04-03T15:45:03;15.50;51.60
3986;DHT22;2007;48.750;9.278;2023-04-03T15:47:32;15.50;51.60
3986;DHT22;2007;48.750;9.278;2023-04-03T15:50:01;15.50;51.60
3986;DHT22;2007;48.750;9.278;2023-04-03T15:52:29;15.50;51.60
3986;DHT22;2007;48.750;9.278;2023-04-03T15:54:57;15.50;51.50
3986;DHT22;2007;48.750;9.278;2023-04-03T15:57:25;15.50;51.50
3986;DHT22;2007;48.750;9.278;2023-04-03T15:59:53;15.50;51.50
3986;DHT22;2007;48.750;9.278;2023-04-03T16:02:21;15.50;51.50
3986;DHT22;2007;48.750;9.278;2023-04-03T16:04:50;15.50;51.50
3986;DHT22;2007;48.750;9.278;2023-04-03T16:07:18;15.50;51.50
3986;DHT22;2007;48.750;9.278;2023-04-03T16:09:46;15.50;51.50
3986;DHT22;2007;48.750;9.278;2023-04-03T16:12:14;15.50;51.50
3986;DHT22;2007;48.750;9.278;2023-04-03T16:14:42;15.50;51.50
3986;DHT22;2007;48.750;9.278;2023-04-03T16:17:10;15.50;51.50
3986;DHT22;2007;48.750;9.278;2023-04-03T16:19:38;15.50;51.50
3986;DHT22;2007;48.750;9.278;2023-04-03T16:22:07;15.50;51.60
3986;DHT22;2007;48.750;9.278;2023-04-03T16:24:35;15.50;52.20
3986;DHT22;2007;48.750;9.278;2023-04-03T16:27:04;15.50;51.50
3986;DHT22;2007;48.750;9.278;2023-04-03T16:29:32;15.50;51.50
3986;DHT22;2007;48.750;9.278;2023-04-03T16:32:00;15.50;51.50
3986;DHT22;2007;48.750;9.278;2023-04-03T16:34:29;15.50;51.50
3986;DHT22;2007;48.750;9.278;2023-04-03T16:36:59;15.50;51.40